createdAt,value
2018-05-29T17:04:32.372Z,80.74
2018-05-29T17:05:32.658Z,80.71
2018-05-29T17:07:24.277Z,80.74
2018-05-29T17:08:24.089Z,81.42
2018-05-29T17:09:23.743Z,80.74
2018-05-29T17:10:24.265Z,81.38
2018-05-29T17:11:23.986Z,80.9
2018-05-29T17:12:24.655Z,80.74
2018-05-29T17:13:24.091Z,80.71
2018-05-29T17:14:24.555Z,80.94
2018-05-29T17:15:23.860Z,80.84
2018-05-29T17:16:26.177Z,81.23
2018-05-29T17:17:24.294Z,81.32
2018-05-29T17:18:24.298Z,80.94
2018-05-29T17:19:24.997Z,80.94
2018-05-29T17:20:24.196Z,80.74
2018-05-29T17:21:24.371Z,80.74
2018-05-29T17:22:24.199Z,80.71
2018-05-29T17:23:23.813Z,80.74
2018-05-29T17:24:24.391Z,80.74
2018-05-29T17:25:24.779Z,80.84
2018-05-29T17:26:25.135Z,80.94
2018-05-29T17:27:24.932Z,80.94
2018-05-29T17:28:26.568Z,80.8
2018-05-29T17:29:25.215Z,80.94
2018-05-29T17:30:24.268Z,80.94
2018-05-29T17:31:24.178Z,80.84
2018-05-29T17:32:25.169Z,80.9
2018-05-29T17:33:24.505Z,80.94
2018-05-29T17:34:24.262Z,81.23
2018-05-29T17:35:23.533Z,80.74
2018-05-29T17:36:23.859Z,81.13
2018-05-29T17:37:24.130Z,80.74
2018-05-29T17:38:24.236Z,80.84
2018-05-29T17:39:23.829Z,81.23
2018-05-29T17:40:23.923Z,80.84
2018-05-29T17:41:24.308Z,80.84
2018-05-29T17:42:24.607Z,80.74
2018-05-29T17:43:24.764Z,81.13
2018-05-29T17:44:24.979Z,80.84
2018-05-29T17:45:24.839Z,80.84
2018-05-29T17:46:26.697Z,80.74
2018-05-29T17:47:24.231Z,81.23
2018-05-29T17:48:27.717Z,80.84
2018-05-29T17:50:08.743Z,80.84
2018-05-29T17:50:24.410Z,80.84
2018-05-29T17:51:25.597Z,80.94
2018-05-29T17:52:24.947Z,80.94
2018-05-29T17:53:38.111Z,80.94
2018-05-29T17:54:27.988Z,80.84
2018-05-29T17:55:25.861Z,80.84
2018-05-29T17:56:41.395Z,81.32
2018-05-29T17:57:24.296Z,81.23
2018-05-29T17:58:25.107Z,81.42
2018-05-29T17:59:26.209Z,81.42
2018-05-29T18:00:23.962Z,81.32
2018-05-29T18:01:24.405Z,81.32
2018-05-29T18:02:25.530Z,81.42
2018-05-29T18:03:24.905Z,81.42
2018-05-29T18:04:26.616Z,81.13
2018-05-29T18:05:25.425Z,81.42
2018-05-29T18:06:24.555Z,81.32
2018-05-29T18:07:25.593Z,81.23
2018-05-29T18:08:23.789Z,81.32
2018-05-29T18:09:25.314Z,81.32
2018-05-29T18:10:25.177Z,81.32
2018-05-29T18:11:24.901Z,81.42
2018-05-29T18:12:24.221Z,81.23
2018-05-29T18:13:23.896Z,81.42
2018-05-29T18:14:24.777Z,81.23
2018-05-29T18:15:24.438Z,81.42
2018-05-29T18:16:25.021Z,81.42
2018-05-29T18:17:24.297Z,81.42
2018-05-29T18:18:24.864Z,81.42
2018-05-29T18:19:25.502Z,81.42
2018-05-29T18:20:24.567Z,81.42
2018-05-29T18:21:24.294Z,81.32
2018-05-29T18:22:25.557Z,81.04
2018-05-29T18:23:24.379Z,81.23
2018-05-29T18:24:25.458Z,81.23
2018-05-29T18:25:24.519Z,81.32
2018-05-29T18:26:25.453Z,81.04
2018-05-29T18:27:24.379Z,80.94
2018-05-29T18:28:24.808Z,81.23
2018-05-29T18:29:24.415Z,81.13
2018-05-29T18:30:24.839Z,81.13
2018-05-29T18:31:24.247Z,81.13
2018-05-29T18:32:25.476Z,81.04
2018-05-29T18:33:24.177Z,81.13
2018-05-29T18:34:25.951Z,80.94
2018-05-29T18:35:24.597Z,81.32
2018-05-29T18:36:24.179Z,81.04
2018-05-29T18:37:23.867Z,81.13
2018-05-29T18:38:23.363Z,81.23
2018-05-29T18:39:24.774Z,81.13
2018-05-29T18:40:23.840Z,81.04
2018-05-29T18:41:23.759Z,81.42
2018-05-29T18:42:24.274Z,81.42
2018-05-29T18:43:24.568Z,81.42
2018-05-29T18:44:35.047Z,81.23
2018-05-29T18:45:24.032Z,81.32
2018-05-29T18:46:24.415Z,81.52
2018-05-29T18:47:24.225Z,81.52
2018-05-29T18:48:24.417Z,81.23
2018-05-29T18:49:24.229Z,81.52
2018-05-29T18:50:25.023Z,81.04
2018-05-29T18:51:24.385Z,81.13
2018-05-29T18:52:24.785Z,81.42
2018-05-29T18:53:24.843Z,81.42
2018-05-29T18:54:25.189Z,81.52
2018-05-29T18:55:24.239Z,81.32
2018-05-29T18:56:24.004Z,81.52
2018-05-29T18:57:24.218Z,81.32
2018-05-29T18:58:24.119Z,81.52
2018-05-29T18:59:26.624Z,81.23
2018-05-29T19:00:27.081Z,81.42
2018-05-29T19:01:25.829Z,81.52
2018-05-29T19:02:24.573Z,81.52
2018-05-29T19:03:25.137Z,81.32
2018-05-29T19:04:25.377Z,81.32
2018-05-29T19:05:24.363Z,81.42
2018-05-29T19:06:25.703Z,81.42
2018-05-29T19:07:25.191Z,81.32
2018-05-29T19:08:23.962Z,81.32
2018-05-29T19:09:24.925Z,81.52
2018-05-29T19:10:23.849Z,81.62
2018-05-29T19:17:04.549Z,81.32
2018-05-29T19:18:04.715Z,81.32
2018-05-29T19:19:15.830Z,81.52
2018-05-29T19:20:06.612Z,81.62
2018-05-29T19:21:05.819Z,81.62
2018-05-29T19:22:05.949Z,81.42
2018-05-29T19:23:05.252Z,81.71
2018-05-29T19:24:05.178Z,81.52
2018-05-29T19:25:04.082Z,81.23
2018-05-29T19:26:05.322Z,81.62
2018-05-29T19:27:09.037Z,81.23
2018-05-29T19:28:05.777Z,81.62
2018-05-29T19:29:06.023Z,81.32
2018-05-29T19:30:04.293Z,81.71
2018-05-29T19:31:05.041Z,81.32
2018-05-29T19:32:04.052Z,81.42
2018-05-29T19:33:04.326Z,81.32
2018-05-29T19:34:05.037Z,81.71
2018-05-29T19:35:05.387Z,81.42
2018-05-29T19:36:05.643Z,81.52
2018-05-29T19:37:05.322Z,81.71
2018-05-29T19:38:04.474Z,81.42
2018-05-29T19:39:04.924Z,81.32
2018-05-29T19:40:04.217Z,81.23
2018-05-29T19:41:04.340Z,81.23
2018-05-29T19:42:05.539Z,81.23
2018-05-29T19:43:06.059Z,81.32
2018-05-29T19:44:07.521Z,81.32
2018-05-29T19:45:08.479Z,81.32
2018-05-29T19:46:10.674Z,81.52
2018-05-29T19:47:10.051Z,81.52
2018-05-29T19:48:06.386Z,81.71
2018-05-29T19:49:05.861Z,81.42
2018-05-29T19:50:04.018Z,81.71
2018-05-29T19:51:04.267Z,81.52
2018-05-29T19:52:03.971Z,81.42
2018-05-29T19:53:03.974Z,81.71
2018-05-29T19:54:04.266Z,81.62
2018-05-29T19:55:04.168Z,81.52
2018-05-29T19:56:03.562Z,81.42
2018-05-29T19:57:03.915Z,81.52
2018-05-29T19:58:04.292Z,81.62
2018-05-29T19:59:03.903Z,81.62
2018-05-29T20:00:04.718Z,81.52
2018-05-29T20:01:04.162Z,81.71
2018-05-29T20:02:04.014Z,81.71
2018-05-29T20:03:05.074Z,81.62
2018-05-29T20:04:04.011Z,81.62
2018-05-29T20:05:04.184Z,81.52
2018-05-29T20:06:04.761Z,81.62
2018-05-29T20:07:04.593Z,81.62
2018-05-29T20:08:03.930Z,81.62
2018-05-29T20:09:04.283Z,81.52
2018-05-29T20:10:03.915Z,81.38
2018-05-29T20:11:04.874Z,81.42
2018-05-29T20:12:04.682Z,81.62
2018-05-29T20:13:03.990Z,81.52
2018-05-29T20:14:04.140Z,81.62
2018-05-29T20:15:04.229Z,81.42
2018-05-29T20:16:04.301Z,81.48
2018-05-29T20:17:04.779Z,81.52
2018-05-29T20:18:04.105Z,81.62
2018-05-29T20:19:04.840Z,81.52
2018-05-29T20:20:04.882Z,81.81
2018-05-29T20:21:04.683Z,81.71
2018-05-29T20:22:05.300Z,81.81
2018-05-29T20:23:05.922Z,81.81
2018-05-29T20:24:05.749Z,81.87
2018-05-29T20:25:04.723Z,82
2018-05-29T20:26:04.767Z,81.9
2018-05-29T20:27:04.715Z,81.71
2018-05-29T20:28:05.861Z,81.71
2018-05-29T20:29:04.955Z,81.71
2018-05-29T20:30:04.795Z,81.71
2018-05-29T20:31:03.734Z,81.81
2018-05-29T20:32:04.130Z,81.52
2018-05-29T20:33:03.761Z,81.9
2018-05-29T20:34:04.005Z,81.81
2018-05-29T20:35:04.440Z,81.48
2018-05-29T20:36:03.782Z,81.81
2018-05-29T20:37:04.258Z,81.48
2018-05-29T20:38:04.187Z,81.67
2018-05-29T20:39:04.341Z,81.71
2018-05-29T20:40:04.133Z,81.87
2018-05-29T20:41:04.318Z,81.71
2018-05-29T20:42:04.017Z,81.71
2018-05-29T20:43:04.497Z,81.67
2018-05-29T20:44:03.911Z,81.57
2018-05-29T20:45:04.072Z,81.87
2018-05-29T20:46:03.703Z,81.71
2018-05-29T20:47:04.261Z,81.48
2018-05-29T20:48:03.426Z,81.71
2018-05-29T20:49:03.301Z,81.67
2018-05-29T20:50:04.132Z,81.71
2018-05-29T20:51:04.251Z,81.71
2018-05-29T20:52:04.368Z,81.48
2018-05-29T20:53:04.307Z,81.57
2018-05-29T20:54:04.567Z,81.48
2018-05-29T20:55:03.853Z,82
2018-05-29T20:56:03.778Z,82
2018-05-29T20:57:03.872Z,81.87
2018-05-29T20:58:03.783Z,81.81
2018-05-29T20:59:04.190Z,81.96
2018-05-29T21:00:03.416Z,82.06
2018-05-29T21:01:03.750Z,81.96
2018-05-29T21:02:03.723Z,81.96
2018-05-29T21:03:03.407Z,81.87
2018-05-29T21:04:03.584Z,81.81
2018-05-29T21:05:03.892Z,82.45
2018-05-29T21:06:03.602Z,82.68
2018-05-29T21:07:04.461Z,82.87
2018-05-29T21:08:19.386Z,83.16
2018-05-29T21:09:03.273Z,83.16
2018-05-29T21:10:03.829Z,83.26
2018-05-29T21:11:03.771Z,83.36
2018-05-29T21:12:03.844Z,83.45
2018-05-29T21:13:04.123Z,83.55
2018-05-29T21:14:03.577Z,84.03
2018-05-29T21:15:03.712Z,83.74
2018-05-29T21:16:03.351Z,84.32
2018-05-29T21:17:03.315Z,84.42
2018-05-29T21:18:03.230Z,84.52
2018-05-29T21:19:03.595Z,84.32
2018-05-29T21:20:03.707Z,84.8
2018-05-29T21:21:04.059Z,84.9
2018-05-29T21:22:03.697Z,84.9
2018-05-29T21:23:03.401Z,84.9
2018-05-29T21:24:03.581Z,85.19
2018-05-29T21:25:03.341Z,85.1
2018-05-29T21:26:03.289Z,85.19
2018-05-29T21:27:03.267Z,85.39
2018-05-29T21:28:03.337Z,85.48
2018-05-29T21:29:03.288Z,85.68
2018-05-29T21:30:03.374Z,85.58
2018-05-29T21:31:03.254Z,85.68
2018-05-29T21:32:03.193Z,85.39
2018-05-29T21:33:03.148Z,85.58
2018-05-29T21:37:32.549Z,85.48
2018-05-29T21:38:32.479Z,85.97
2018-05-29T21:39:32.480Z,85.77
2018-05-29T21:40:32.488Z,85.87
2018-05-29T21:41:32.414Z,85.77
2018-05-29T21:42:32.472Z,86.16
2018-05-29T21:43:32.399Z,86.25
2018-05-29T21:44:32.429Z,86.06
2018-05-29T21:45:32.418Z,85.58
2018-05-29T21:46:32.549Z,86.35
2018-05-29T21:47:32.608Z,85.39
2018-05-29T21:48:32.407Z,85.48
2018-05-29T21:49:32.415Z,85.39
2018-05-29T21:50:32.418Z,86.35
2018-05-29T21:51:32.436Z,86.06
2018-05-29T21:52:32.429Z,85.29
2018-05-29T21:53:32.528Z,85.58
2018-05-29T21:54:32.440Z,85.77
2018-05-29T21:55:32.407Z,86.16
2018-05-29T21:56:32.409Z,85.77
2018-05-29T21:57:32.478Z,86.16
2018-05-29T21:58:32.462Z,86.16
2018-05-29T21:59:32.481Z,86.45
2018-05-29T22:00:32.528Z,86.25
2018-05-29T22:01:33.183Z,86.83
2018-05-29T22:02:32.503Z,86.35
2018-05-29T22:03:32.699Z,86.16
2018-05-29T22:04:32.518Z,86.16
2018-05-29T22:05:32.521Z,86.06
2018-05-29T22:06:32.502Z,86.25
2018-05-29T22:07:32.462Z,86.16
2018-05-29T22:08:32.469Z,85.97
2018-05-29T22:09:32.439Z,86.74
2018-05-29T22:10:32.472Z,86.06
2018-05-29T22:11:32.515Z,86.65
2018-05-29T22:12:32.458Z,85.97
2018-05-29T22:13:32.492Z,85.87
2018-05-29T22:14:32.463Z,86.83
2018-05-29T22:15:32.480Z,85.97
2018-05-29T22:16:32.545Z,86.55
2018-05-29T22:17:32.475Z,86.35
2018-05-29T22:22:01.397Z,86.35
2018-05-29T22:23:01.413Z,86.25
2018-05-29T22:24:01.492Z,86.55
2018-05-29T22:25:01.394Z,86.65
2018-05-29T22:26:01.449Z,86.65
2018-05-29T22:27:01.415Z,86.65
2018-05-29T22:28:01.521Z,86.83
2018-05-29T22:29:01.498Z,86.93
2018-05-29T22:30:01.451Z,86.83
2018-05-29T22:31:01.460Z,86.83
2018-05-29T22:32:01.471Z,86.65
2018-05-29T22:33:01.510Z,86.45
2018-05-29T22:34:01.482Z,87.23
2018-05-29T22:35:01.471Z,87.13
2018-05-29T22:36:01.414Z,87.32
2018-05-29T22:37:01.403Z,87.51
2018-05-29T22:38:01.757Z,87.32
2018-05-29T22:39:01.409Z,87.32
2018-05-29T22:40:01.408Z,87.23
2018-05-29T22:41:01.399Z,87.13
2018-05-29T22:42:01.449Z,87.13
2018-05-29T22:43:01.524Z,87.41
2018-05-29T22:44:01.393Z,87.71
2018-05-29T22:45:01.488Z,87.71
2018-05-29T22:46:01.426Z,87.61
2018-05-29T22:47:01.433Z,87.32
2018-05-29T22:48:01.477Z,87.61
2018-05-29T22:49:01.435Z,87.51
2018-05-29T22:50:01.427Z,87.61
2018-05-29T22:51:01.468Z,87.71
2018-05-29T22:52:01.419Z,87.61
2018-05-29T22:53:01.546Z,87.23
2018-05-29T22:54:01.478Z,87.23
2018-05-29T22:55:01.498Z,87.03
2018-05-29T22:56:01.447Z,87.51
2018-05-29T22:57:01.504Z,87.32
2018-05-29T22:58:01.517Z,87.41
2018-05-29T22:59:01.457Z,87.32
2018-05-29T23:00:01.572Z,87.41
2018-05-29T23:01:01.529Z,87.32
2018-05-29T23:02:01.477Z,87.13
2018-05-29T23:03:01.509Z,87.03
2018-05-29T23:04:01.423Z,87.13
2018-05-29T23:08:31.292Z,87.32
2018-05-29T23:09:31.250Z,87.32
2018-05-29T23:10:31.280Z,87.13
2018-05-29T23:11:31.230Z,87.41
2018-05-29T23:12:31.244Z,87.23
2018-05-29T23:13:32.488Z,87.23
2018-05-29T23:14:31.257Z,87.13
2018-05-29T23:15:31.337Z,87.23
2018-05-29T23:16:31.303Z,87.71
2018-05-29T23:17:31.246Z,87.13
2018-05-29T23:18:31.373Z,87.13
2018-05-29T23:19:31.269Z,87.23
2018-05-29T23:20:31.289Z,87.23
2018-05-29T23:21:31.273Z,87.13
2018-05-29T23:22:31.274Z,87.13
2018-05-29T23:23:31.317Z,87.13
2018-05-29T23:24:31.296Z,87.23
2018-05-29T23:25:31.347Z,87.13
2018-05-29T23:26:31.333Z,87.13
2018-05-29T23:27:31.347Z,87.13
2018-05-29T23:28:31.300Z,87.71
2018-05-29T23:29:31.330Z,86.93
2018-05-29T23:30:31.335Z,87.32
2018-05-29T23:31:31.364Z,87.23
2018-05-29T23:32:31.307Z,87.23
2018-05-29T23:33:31.355Z,87.23
2018-05-29T23:34:31.335Z,87.23
2018-05-29T23:35:31.372Z,87.17
2018-05-29T23:36:31.296Z,86.93
2018-05-29T23:37:31.366Z,87.71
2018-05-29T23:38:31.444Z,87.13
2018-05-29T23:39:31.374Z,87.13
2018-05-29T23:40:31.407Z,86.93
2018-05-29T23:41:31.333Z,87.71
2018-05-29T23:42:31.313Z,87.32
2018-05-29T23:43:31.395Z,87.51
2018-05-29T23:44:31.354Z,87.71
2018-05-29T23:45:31.374Z,87.51
2018-05-29T23:46:31.358Z,87.71
2018-05-29T23:47:31.322Z,87.51
2018-05-29T23:48:31.376Z,87.32
2018-05-29T23:49:31.355Z,87.41
2018-05-29T23:50:31.358Z,87.41
2018-05-29T23:51:31.459Z,87.41
2018-05-29T23:52:31.432Z,87.51
2018-05-29T23:53:31.385Z,87.46
2018-05-29T23:54:31.422Z,87.61
2018-05-29T23:55:31.369Z,87.51
2018-05-29T23:56:31.362Z,87.27
2018-05-29T23:57:31.412Z,86.98
2018-05-29T23:58:31.398Z,87.13
2018-05-29T23:59:31.429Z,87.41
